Accueil
METAR-TAF:

METAR-TAF

Aéroports :

Amman, Jordanie

Aéroport civil d'Amman

latitude: 31-59N, longitude: 035-59E, altitude: 767 m

Observation

Le bulletin a été fait il y a 1 heure et 7 minutes, à 04:00 UTC
Vent calme
Température 23°C
Humidité 47%
Pression 1012 hPa
Visibilité: 5000 m
brume sèche

METAR: OJAM 260400Z 00000KT 5000 HZ NSC 23/11 Q1012 NOSIG

Heure: 08:07 (05:07 UTC)


TAF: absent

Observations et prévisions météorologiques de plus de 4000 aéroports (messages METAR et TAF).

Les stations disponibles sont représentées par des disques jaunes et rouges sur la carte.

Passer la souris dessus pour voir le nom de la station.

Cliquer dessus pour voir les observations et prévisions météorologiques.

Pour changer de carte: cliquez sur les boutons verts avec une croix noire pour zoomer, sur le bouton vert avec un tiret pour effectuer un zoom arrière, ou sur les flèches vertes pour les cartes adjacentes.


METAR-TAF: